sensor_id;sensor_type;location;lat;lon;timestamp;temperature;humidity
37356;DHT22;48747;50.250;18.848;2023-08-17T00:01:09;24.40;99.90
37356;DHT22;48747;50.250;18.848;2023-08-17T00:03:12;24.40;99.90
37356;DHT22;48747;50.250;18.848;2023-08-17T00:05:17;24.30;99.90
37356;DHT22;48747;50.250;18.848;2023-08-17T00:07:20;24.30;99.90
37356;DHT22;48747;50.250;18.848;2023-08-17T00:09:23;24.10;99.90
37356;DHT22;48747;50.250;18.848;2023-08-17T00:11:28;24.00;99.90
37356;DHT22;48747;50.250;18.848;2023-08-17T00:13:31;24.00;99.90
37356;DHT22;48747;50.250;18.848;2023-08-17T00:15:36;23.90;99.90
37356;DHT22;48747;50.250;18.848;2023-08-17T00:17:39;24.00;99.90
37356;DHT22;48747;50.250;18.848;2023-08-17T00:19:43;23.90;99.90
37356;DHT22;48747;50.250;18.848;2023-08-17T00:21:48;23.80;99.90
37356;DHT22;48747;50.250;18.848;2023-08-17T00:23:53;23.70;99.90
37356;DHT22;48747;50.250;18.848;2023-08-17T00:25:58;23.70;99.90
37356;DHT22;48747;50.250;18.848;2023-08-17T00:28:01;23.60;99.90
37356;DHT22;48747;50.250;18.848;2023-08-17T00:30:10;23.60;99.90
37356;DHT22;48747;50.250;18.848;2023-08-17T00:32:09;23.60;99.90
37356;DHT22;48747;50.250;18.848;2023-08-17T00:34:12;23.50;99.90
37356;DHT22;48747;50.250;18.848;2023-08-17T00:36:15;23.50;99.90
37356;DHT22;48747;50.250;18.848;2023-08-17T00:38:23;23.50;99.90
37356;DHT22;48747;50.250;18.848;2023-08-17T00:40:25;23.40;99.90
37356;DHT22;48747;50.250;18.848;2023-08-17T00:42:28;23.50;99.90
37356;DHT22;48747;50.250;18.848;2023-08-17T00:44:31;23.50;99.90
37356;DHT22;48747;50.250;18.848;2023-08-17T00:46:34;23.50;99.90
37356;DHT22;48747;50.250;18.848;2023-08-17T00:48:40;23.60;99.90
37356;DHT22;48747;50.250;18.848;2023-08-17T00:50:44;23.50;99.90
37356;DHT22;48747;50.250;18.848;2023-08-17T00:52:49;23.60;99.90
37356;DHT22;48747;50.250;18.848;2023-08-17T00:54:52;23.50;99.90
37356;DHT22;48747;50.250;18.848;2023-08-17T00:56:55;23.50;99.90
37356;DHT22;48747;50.250;18.848;2023-08-17T00:58:58;23.50;99.90
37356;DHT22;48747;50.250;18.848;2023-08-17T01:01:01;23.40;99.90
37356;DHT22;48747;50.250;18.848;2023-08-17T01:03:04;23.40;99.90
37356;DHT22;48747;50.250;18.848;2023-08-17T01:05:08;23.30;99.90
37356;DHT22;48747;50.250;18.848;2023-08-17T01:07:11;23.20;99.90
37356;DHT22;48747;50.250;18.848;2023-08-17T01:09:14;23.20;99.90
37356;DHT22;48747;50.250;18.848;2023-08-17T01:11:25;23.20;99.90
37356;DHT22;48747;50.250;18.848;2023-08-17T01:13:44;23.10;99.90
37356;DHT22;48747;50.250;18.848;2023-08-17T01:15:40;23.20;99.90
37356;DHT22;48747;50.250;18.848;2023-08-17T01:20:09;23.00;99.90
37356;DHT22;48747;50.250;18.848;2023-08-17T01:22:17;23.00;99.90
37356;DHT22;48747;50.250;18.848;2023-08-17T01:24:22;22.90;99.90
37356;DHT22;48747;50.250;18.848;2023-08-17T01:26:25;22.90;99.90
37356;DHT22;48747;50.250;18.848;2023-08-17T01:28:29;22.80;99.90
37356;DHT22;48747;50.250;18.848;2023-08-17T01:31:24;22.80;99.90
37356;DHT22;48747;50.250;18.848;2023-08-17T01:32:49;22.80;99.90
37356;DHT22;48747;50.250;18.848;2023-08-17T01:34:55;22.80;99.90
37356;DHT22;48747;50.250;18.848;2023-08-17T01:37:00;22.80;99.90
37356;DHT22;48747;50.250;18.848;2023-08-17T01:39:06;22.80;99.90
37356;DHT22;48747;50.250;18.848;2023-08-17T01:41:10;22.70;99.90
37356;DHT22;48747;50.250;18.848;2023-08-17T01:43:17;22.70;99.90
37356;DHT22;48747;50.250;18.848;2023-08-17T01:45:21;22.70;99.90
37356;DHT22;48747;50.250;18.848;2023-08-17T01:47:24;22.60;99.90
37356;DHT22;48747;50.250;18.848;2023-08-17T01:49:27;22.60;99.90
37356;DHT22;48747;50.250;18.848;2023-08-17T01:51:30;22.60;99.90
37356;DHT22;48747;50.250;18.848;2023-08-17T01:53:34;22.60;99.90
37356;DHT22;48747;50.250;18.848;2023-08-17T01:55:38;22.50;99.90
37356;DHT22;48747;50.250;18.848;2023-08-17T01:57:41;22.60;99.90
37356;DHT22;48747;50.250;18.848;2023-08-17T01:59:45;22.60;99.90
37356;DHT22;48747;50.250;18.848;2023-08-17T02:01:48;22.60;99.90
37356;DHT22;48747;50.250;18.848;2023-08-17T02:03:51;22.60;99.90
37356;DHT22;48747;50.250;18.848;2023-08-17T02:05:59;22.60;99.90
37356;DHT22;48747;50.250;18.848;2023-08-17T02:08:03;22.60;99.90
37356;DHT22;48747;50.250;18.848;2023-08-17T02:10:07;22.70;99.90
37356;DHT22;48747;50.250;18.848;2023-08-17T02:12:13;22.60;99.90
37356;DHT22;48747;50.250;18.848;2023-08-17T02:14:18;22.70;99.90
37356;DHT22;48747;50.250;18.848;2023-08-17T02:16:21;22.60;99.90
37356;DHT22;48747;50.250;18.848;2023-08-17T02:18:26;22.60;99.90
37356;DHT22;48747;50.250;18.848;2023-08-17T02:20:30;22.50;99.90
37356;DHT22;48747;50.250;18.848;2023-08-17T02:22:33;22.40;99.90
37356;DHT22;48747;50.250;18.848;2023-08-17T02:24:38;22.40;99.90
37356;DHT22;48747;50.250;18.848;2023-08-17T02:26:43;22.40;99.90
37356;DHT22;48747;50.250;18.848;2023-08-17T02:28:46;22.40;99.90
37356;DHT22;48747;50.250;18.848;2023-08-17T02:30:51;22.40;99.90
37356;DHT22;48747;50.250;18.848;2023-08-17T02:32:54;22.50;99.90
37356;DHT22;48747;50.250;18.848;2023-08-17T02:34:57;22.40;99.90
37356;DHT22;48747;50.250;18.848;2023-08-17T02:37:02;22.50;99.90
37356;DHT22;48747;50.250;18.848;2023-08-17T02:39:06;22.60;99.90
37356;DHT22;48747;50.250;18.848;2023-08-17T02:41:09;22.60;99.90
37356;DHT22;48747;50.250;18.848;2023-08-17T02:43:12;22.60;99.90
37356;DHT22;48747;50.250;18.848;2023-08-17T02:45:26;22.50;99.90
37356;DHT22;48747;50.250;18.848;2023-08-17T02:47:41;22.60;99.90
37356;DHT22;48747;50.250;18.848;2023-08-17T02:49:50;22.60;99.90
37356;DHT22;48747;50.250;18.848;2023-08-17T02:52:00;22.60;99.90
37356;DHT22;48747;50.250;18.848;2023-08-17T02:54:04;22.60;99.90
37356;DHT22;48747;50.250;18.848;2023-08-17T02:56:16;22.60;99.90
37356;DHT22;48747;50.250;18.848;2023-08-17T02:58:32;22.50;99.90
37356;DHT22;48747;50.250;18.848;2023-08-17T03:00:45;22.40;99.90
37356;DHT22;48747;50.250;18.848;2023-08-17T03:03:00;22.40;99.90
37356;DHT22;48747;50.250;18.848;2023-08-17T03:05:18;22.30;99.90
37356;DHT22;48747;50.250;18.848;2023-08-17T03:07:25;22.20;99.90
37356;DHT22;48747;50.250;18.848;2023-08-17T03:09:46;22.20;99.90
37356;DHT22;48747;50.250;18.848;2023-08-17T03:11:49;22.10;99.90
37356;DHT22;48747;50.250;18.848;2023-08-17T03:13:59;22.00;99.90
37356;DHT22;48747;50.250;18.848;2023-08-17T03:16:12;21.90;99.90
37356;DHT22;48747;50.250;18.848;2023-08-17T03:18:24;21.90;99.90
37356;DHT22;48747;50.250;18.848;2023-08-17T03:20:39;21.80;99.90
37356;DHT22;48747;50.250;18.848;2023-08-17T03:22:42;21.70;99.90
37356;DHT22;48747;50.250;18.848;2023-08-17T03:24:56;21.70;99.90
37356;DHT22;48747;50.250;18.848;2023-08-17T03:27:08;21.60;99.90
37356;DHT22;48747;50.250;18.848;2023-08-17T03:29:21;21.60;99.90
37356;DHT22;48747;50.250;18.848;2023-08-17T03:31:35;21.60;99.90
37356;DHT22;48747;50.250;18.848;2023-08-17T03:33:52;21.60;99.90
37356;DHT22;48747;50.250;18.848;2023-08-17T03:36:02;21.60;99.90
37356;DHT22;48747;50.250;18.848;2023-08-17T03:38:14;21.60;99.90
37356;DHT22;48747;50.250;18.848;2023-08-17T03:40:25;21.50;99.90
37356;DHT22;48747;50.250;18.848;2023-08-17T03:42:40;21.50;99.90
37356;DHT22;48747;50.250;18.848;2023-08-17T03:44:58;21.60;99.90
37356;DHT22;48747;50.250;18.848;2023-08-17T03:47:11;21.60;99.90
37356;DHT22;48747;50.250;18.848;2023-08-17T03:49:21;21.70;99.90
37356;DHT22;48747;50.250;18.848;2023-08-17T03:51:28;21.80;99.90
37356;DHT22;48747;50.250;18.848;2023-08-17T03:53:59;21.90;99.90
37356;DHT22;48747;50.250;18.848;2023-08-17T03:55:57;21.90;99.90
37356;DHT22;48747;50.250;18.848;2023-08-17T03:58:00;21.80;99.90
37356;DHT22;48747;50.250;18.848;2023-08-17T04:00:04;21.80;99.90
37356;DHT22;48747;50.250;18.848;2023-08-17T04:02:08;21.70;99.90
37356;DHT22;48747;50.250;18.848;2023-08-17T04:04:12;21.60;99.90
37356;DHT22;48747;50.250;18.848;2023-08-17T04:06:15;21.60;99.90
37356;DHT22;48747;50.250;18.848;2023-08-17T04:08:20;21.60;99.90
37356;DHT22;48747;50.250;18.848;2023-08-17T04:10:23;21.60;99.90
37356;DHT22;48747;50.250;18.848;2023-08-17T04:12:28;21.70;99.90
37356;DHT22;48747;50.250;18.848;2023-08-17T04:14:31;21.70;99.90
37356;DHT22;48747;50.250;18.848;2023-08-17T04:16:34;21.70;99.90
37356;DHT22;48747;50.250;18.848;2023-08-17T04:18:37;21.70;99.90
37356;DHT22;48747;50.250;18.848;2023-08-17T04:20:40;21.60;99.90
37356;DHT22;48747;50.250;18.848;2023-08-17T04:22:44;21.60;99.90
37356;DHT22;48747;50.250;18.848;2023-08-17T04:24:47;21.60;99.90
37356;DHT22;48747;50.250;18.848;2023-08-17T04:26:50;21.60;99.90
37356;DHT22;48747;50.250;18.848;2023-08-17T04:28:53;21.60;99.90
37356;DHT22;48747;50.250;18.848;2023-08-17T04:30:56;21.60;99.90
37356;DHT22;48747;50.250;18.848;2023-08-17T04:32:59;21.60;99.90
37356;DHT22;48747;50.250;18.848;2023-08-17T04:35:03;21.70;99.90
37356;DHT22;48747;50.250;18.848;2023-08-17T04:37:06;21.70;99.90
37356;DHT22;48747;50.250;18.848;2023-08-17T04:39:09;21.70;99.90
37356;DHT22;48747;50.250;18.848;2023-08-17T04:41:12;21.80;99.90
37356;DHT22;48747;50.250;18.848;2023-08-17T04:43:17;21.80;99.90
37356;DHT22;48747;50.250;18.848;2023-08-17T04:45:20;21.90;99.90
37356;DHT22;48747;50.250;18.848;2023-08-17T04:47:23;21.80;99.90
37356;DHT22;48747;50.250;18.848;2023-08-17T04:49:26;21.80;99.90
37356;DHT22;48747;50.250;18.848;2023-08-17T04:51:30;21.80;99.90
37356;DHT22;48747;50.250;18.848;2023-08-17T04:53:33;21.90;99.90
37356;DHT22;48747;50.250;18.848;2023-08-17T04:55:37;22.00;99.90
37356;DHT22;48747;50.250;18.848;2023-08-17T04:57:40;22.10;99.90
37356;DHT22;48747;50.250;18.848;2023-08-17T04:59:43;22.20;99.90
37356;DHT22;48747;50.250;18.848;2023-08-17T05:01:46;22.20;99.90
37356;DHT22;48747;50.250;18.848;2023-08-17T05:03:52;22.20;99.90
37356;DHT22;48747;50.250;18.848;2023-08-17T05:05:57;22.10;99.90
37356;DHT22;48747;50.250;18.848;2023-08-17T05:08:00;22.10;99.90
37356;DHT22;48747;50.250;18.848;2023-08-17T05:10:03;22.10;99.90
37356;DHT22;48747;50.250;18.848;2023-08-17T05:12:08;22.10;99.90
37356;DHT22;48747;50.250;18.848;2023-08-17T05:14:11;22.10;99.90
37356;DHT22;48747;50.250;18.848;2023-08-17T05:16:15;22.00;99.90
37356;DHT22;48747;50.250;18.848;2023-08-17T05:18:19;22.00;99.90
37356;DHT22;48747;50.250;18.848;2023-08-17T05:20:22;22.00;99.90
37356;DHT22;48747;50.250;18.848;2023-08-17T05:22:27;21.90;99.90
37356;DHT22;48747;50.250;18.848;2023-08-17T05:24:30;21.90;99.90
37356;DHT22;48747;50.250;18.848;2023-08-17T05:26:33;22.00;99.90
37356;DHT22;48747;50.250;18.848;2023-08-17T05:28:36;22.10;99.90
37356;DHT22;48747;50.250;18.848;2023-08-17T05:30:39;22.10;99.90
37356;DHT22;48747;50.250;18.848;2023-08-17T05:32:44;22.20;99.90
37356;DHT22;48747;50.250;18.848;2023-08-17T05:34:48;22.10;99.90
37356;DHT22;48747;50.250;18.848;2023-08-17T05:36:51;22.10;99.90
37356;DHT22;48747;50.250;18.848;2023-08-17T05:38:54;22.20;99.90
37356;DHT22;48747;50.250;18.848;2023-08-17T05:40:59;22.20;99.90
37356;DHT22;48747;50.250;18.848;2023-08-17T05:43:04;22.20;99.90
37356;DHT22;48747;50.250;18.848;2023-08-17T05:45:07;22.30;99.90
37356;DHT22;48747;50.250;18.848;2023-08-17T05:47:11;22.20;99.90
37356;DHT22;48747;50.250;18.848;2023-08-17T05:49:15;22.30;99.90
37356;DHT22;48747;50.250;18.848;2023-08-17T05:51:20;22.30;99.90
37356;DHT22;48747;50.250;18.848;2023-08-17T05:53:23;22.30;99.90
37356;DHT22;48747;50.250;18.848;2023-08-17T05:55:31;22.30;99.90
37356;DHT22;48747;50.250;18.848;2023-08-17T05:57:30;22.40;99.90
37356;DHT22;48747;50.250;18.848;2023-08-17T05:59:37;22.40;99.90
37356;DHT22;48747;50.250;18.848;2023-08-17T06:01:38;22.50;99.90
37356;DHT22;48747;50.250;18.848;2023-08-17T06:03:42;22.50;99.90
37356;DHT22;48747;50.250;18.848;2023-08-17T06:05:45;22.50;99.90
37356;DHT22;48747;50.250;18.848;2023-08-17T06:07:48;22.60;99.90
37356;DHT22;48747;50.250;18.848;2023-08-17T06:09:53;22.70;99.90
37356;DHT22;48747;50.250;18.848;2023-08-17T06:11:56;22.80;99.90
37356;DHT22;48747;50.250;18.848;2023-08-17T06:13:59;22.90;99.90
37356;DHT22;48747;50.250;18.848;2023-08-17T06:16:04;23.00;99.90
37356;DHT22;48747;50.250;18.848;2023-08-17T06:18:07;23.10;99.90
37356;DHT22;48747;50.250;18.848;2023-08-17T06:20:11;23.10;99.90
37356;DHT22;48747;50.250;18.848;2023-08-17T06:22:15;23.20;99.90
37356;DHT22;48747;50.250;18.848;2023-08-17T06:24:18;23.30;99.90
37356;DHT22;48747;50.250;18.848;2023-08-17T06:26:21;23.30;99.90
37356;DHT22;48747;50.250;18.848;2023-08-17T06:28:25;23.40;99.90
37356;DHT22;48747;50.250;18.848;2023-08-17T06:30:29;23.30;99.90
37356;DHT22;48747;50.250;18.848;2023-08-17T06:32:32;23.50;99.90
37356;DHT22;48747;50.250;18.848;2023-08-17T06:34:35;23.50;99.90
37356;DHT22;48747;50.250;18.848;2023-08-17T06:36:38;23.70;99.90
37356;DHT22;48747;50.250;18.848;2023-08-17T06:38:42;23.80;99.90
37356;DHT22;48747;50.250;18.848;2023-08-17T06:40:46;23.90;99.90
37356;DHT22;48747;50.250;18.848;2023-08-17T06:42:50;24.00;99.90
37356;DHT22;48747;50.250;18.848;2023-08-17T06:44:54;24.10;99.90
37356;DHT22;48747;50.250;18.848;2023-08-17T06:46:57;24.20;99.90
37356;DHT22;48747;50.250;18.848;2023-08-17T06:49:02;24.30;99.90
37356;DHT22;48747;50.250;18.848;2023-08-17T06:51:05;24.50;99.90
37356;DHT22;48747;50.250;18.848;2023-08-17T06:53:08;24.60;99.90
37356;DHT22;48747;50.250;18.848;2023-08-17T06:55:11;24.50;99.90
37356;DHT22;48747;50.250;18.848;2023-08-17T06:57:14;24.40;99.90
37356;DHT22;48747;50.250;18.848;2023-08-17T06:59:18;24.40;99.90
37356;DHT22;48747;50.250;18.848;2023-08-17T07:01:21;24.40;99.90
37356;DHT22;48747;50.250;18.848;2023-08-17T07:03:24;24.30;99.90
37356;DHT22;48747;50.250;18.848;2023-08-17T07:05:30;24.30;99.90
37356;DHT22;48747;50.250;18.848;2023-08-17T07:07:32;24.30;99.90
37356;DHT22;48747;50.250;18.848;2023-08-17T07:09:38;24.30;99.90
37356;DHT22;48747;50.250;18.848;2023-08-17T07:11:42;24.30;99.90
37356;DHT22;48747;50.250;18.848;2023-08-17T07:13:46;24.40;99.90
37356;DHT22;48747;50.250;18.848;2023-08-17T07:15:50;24.50;99.90
37356;DHT22;48747;50.250;18.848;2023-08-17T07:17:53;24.60;99.90
37356;DHT22;48747;50.250;18.848;2023-08-17T07:19:57;24.70;99.90
37356;DHT22;48747;50.250;18.848;2023-08-17T07:22:02;24.70;99.90
37356;DHT22;48747;50.250;18.848;2023-08-17T07:24:15;24.70;99.90
37356;DHT22;48747;50.250;18.848;2023-08-17T07:26:18;24.70;99.90
37356;DHT22;48747;50.250;18.848;2023-08-17T07:28:27;24.60;99.90
37356;DHT22;48747;50.250;18.848;2023-08-17T07:30:27;24.60;99.90
37356;DHT22;48747;50.250;18.848;2023-08-17T07:32:30;24.60;99.90
37356;DHT22;48747;50.250;18.848;2023-08-17T07:34:33;24.60;99.90
37356;DHT22;48747;50.250;18.848;2023-08-17T07:36:36;24.60;99.90
37356;DHT22;48747;50.250;18.848;2023-08-17T07:38:39;24.70;99.90
37356;DHT22;48747;50.250;18.848;2023-08-17T07:40:44;24.70;99.90
37356;DHT22;48747;50.250;18.848;2023-08-17T07:42:47;24.90;99.90
37356;DHT22;48747;50.250;18.848;2023-08-17T07:44:50;25.10;99.90
37356;DHT22;48747;50.250;18.848;2023-08-17T07:46:53;25.20;99.90
37356;DHT22;48747;50.250;18.848;2023-08-17T07:48:58;25.30;99.90
37356;DHT22;48747;50.250;18.848;2023-08-17T07:51:04;25.20;99.90
37356;DHT22;48747;50.250;18.848;2023-08-17T07:53:08;25.40;99.90
37356;DHT22;48747;50.250;18.848;2023-08-17T07:55:13;25.50;99.90
37356;DHT22;48747;50.250;18.848;2023-08-17T07:57:17;25.50;99.90
37356;DHT22;48747;50.250;18.848;2023-08-17T07:59:24;25.70;99.90
37356;DHT22;48747;50.250;18.848;2023-08-17T08:01:27;25.90;99.90
37356;DHT22;48747;50.250;18.848;2023-08-17T08:03:32;26.00;99.90
37356;DHT22;48747;50.250;18.848;2023-08-17T08:05:42;26.10;99.90
37356;DHT22;48747;50.250;18.848;2023-08-17T08:07:42;26.30;99.90
37356;DHT22;48747;50.250;18.848;2023-08-17T08:09:45;26.50;99.90
37356;DHT22;48747;50.250;18.848;2023-08-17T08:11:48;26.70;99.90
37356;DHT22;48747;50.250;18.848;2023-08-17T08:13:51;26.80;99.90
37356;DHT22;48747;50.250;18.848;2023-08-17T08:15:54;26.70;99.90
37356;DHT22;48747;50.250;18.848;2023-08-17T08:17:57;26.60;99.90
37356;DHT22;48747;50.250;18.848;2023-08-17T08:20:01;26.40;99.90
37356;DHT22;48747;50.250;18.848;2023-08-17T08:22:06;26.20;99.90
37356;DHT22;48747;50.250;18.848;2023-08-17T08:24:09;26.30;99.90
37356;DHT22;48747;50.250;18.848;2023-08-17T08:26:12;26.50;99.90
37356;DHT22;48747;50.250;18.848;2023-08-17T08:28:15;26.70;99.90
37356;DHT22;48747;50.250;18.848;2023-08-17T08:30:18;26.90;99.90
37356;DHT22;48747;50.250;18.848;2023-08-17T08:32:22;27.00;99.90
37356;DHT22;48747;50.250;18.848;2023-08-17T08:34:25;27.10;99.90
37356;DHT22;48747;50.250;18.848;2023-08-17T08:36:28;27.20;99.90
37356;DHT22;48747;50.250;18.848;2023-08-17T08:38:31;27.10;99.90
37356;DHT22;48747;50.250;18.848;2023-08-17T08:40:36;27.00;99.90
37356;DHT22;48747;50.250;18.848;2023-08-17T08:42:44;26.90;99.90
37356;DHT22;48747;50.250;18.848;2023-08-17T08:44:45;26.90;99.90
37356;DHT22;48747;50.250;18.848;2023-08-17T08:46:52;26.80;99.90
37356;DHT22;48747;50.250;18.848;2023-08-17T08:48:57;26.90;99.90
37356;DHT22;48747;50.250;18.848;2023-08-17T08:51:03;27.00;99.90
37356;DHT22;48747;50.250;18.848;2023-08-17T08:53:15;27.20;99.90
37356;DHT22;48747;50.250;18.848;2023-08-17T08:55:23;27.30;99.90
37356;DHT22;48747;50.250;18.848;2023-08-17T08:57:28;27.40;99.90
37356;DHT22;48747;50.250;18.848;2023-08-17T08:59:33;27.60;99.90
37356;DHT22;48747;50.250;18.848;2023-08-17T09:01:37;27.70;99.90
37356;DHT22;48747;50.250;18.848;2023-08-17T09:03:46;27.70;99.90
37356;DHT22;48747;50.250;18.848;2023-08-17T09:05:54;27.60;99.90
37356;DHT22;48747;50.250;18.848;2023-08-17T09:07:56;27.50;99.90
37356;DHT22;48747;50.250;18.848;2023-08-17T09:09:59;27.40;99.90
37356;DHT22;48747;50.250;18.848;2023-08-17T09:12:03;27.20;99.90
37356;DHT22;48747;50.250;18.848;2023-08-17T09:14:08;27.40;99.90
37356;DHT22;48747;50.250;18.848;2023-08-17T09:16:16;27.50;99.90
37356;DHT22;48747;50.250;18.848;2023-08-17T09:18:16;27.60;99.90
37356;DHT22;48747;50.250;18.848;2023-08-17T09:20:36;27.70;99.90
37356;DHT22;48747;50.250;18.848;2023-08-17T09:22:43;27.80;99.90
37356;DHT22;48747;50.250;18.848;2023-08-17T09:24:47;28.00;99.90
37356;DHT22;48747;50.250;18.848;2023-08-17T09:26:50;28.20;99.90
37356;DHT22;48747;50.250;18.848;2023-08-17T09:28:55;28.20;99.90
37356;DHT22;48747;50.250;18.848;2023-08-17T09:31:02;28.30;99.90
37356;DHT22;48747;50.250;18.848;2023-08-17T09:33:09;28.40;99.90
37356;DHT22;48747;50.250;18.848;2023-08-17T09:35:12;28.60;99.90
37356;DHT22;48747;50.250;18.848;2023-08-17T09:37:21;28.80;99.90
37356;DHT22;48747;50.250;18.848;2023-08-17T09:39:20;28.90;99.90
37356;DHT22;48747;50.250;18.848;2023-08-17T09:41:23;28.80;99.90
37356;DHT22;48747;50.250;18.848;2023-08-17T09:43:26;28.70;99.90
37356;DHT22;48747;50.250;18.848;2023-08-17T09:45:31;28.60;99.90
37356;DHT22;48747;50.250;18.848;2023-08-17T09:47:34;28.50;99.90
37356;DHT22;48747;50.250;18.848;2023-08-17T09:49:37;28.50;99.90
37356;DHT22;48747;50.250;18.848;2023-08-17T09:51:44;28.40;99.20
37356;DHT22;48747;50.250;18.848;2023-08-17T09:53:51;28.50;98.00
37356;DHT22;48747;50.250;18.848;2023-08-17T09:55:55;28.60;99.10
37356;DHT22;48747;50.250;18.848;2023-08-17T09:57:59;28.80;97.50
37356;DHT22;48747;50.250;18.848;2023-08-17T10:00:02;29.00;95.40
37356;DHT22;48747;50.250;18.848;2023-08-17T10:02:21;29.10;96.50
37356;DHT22;48747;50.250;18.848;2023-08-17T10:04:26;29.20;97.00
37356;DHT22;48747;50.250;18.848;2023-08-17T10:06:34;29.40;95.70
37356;DHT22;48747;50.250;18.848;2023-08-17T10:08:42;29.70;95.60
37356;DHT22;48747;50.250;18.848;2023-08-17T10:10:46;30.00;96.10
37356;DHT22;48747;50.250;18.848;2023-08-17T10:13:03;30.00;93.40
37356;DHT22;48747;50.250;18.848;2023-08-17T10:15:11;30.20;94.70
37356;DHT22;48747;50.250;18.848;2023-08-17T10:17:19;30.50;92.90
37356;DHT22;48747;50.250;18.848;2023-08-17T10:19:33;30.50;91.90
37356;DHT22;48747;50.250;18.848;2023-08-17T10:21:56;30.30;90.80
37356;DHT22;48747;50.250;18.848;2023-08-17T10:23:49;30.00;91.20
37356;DHT22;48747;50.250;18.848;2023-08-17T10:25:53;30.10;92.50
37356;DHT22;48747;50.250;18.848;2023-08-17T10:27:56;30.20;93.40
37356;DHT22;48747;50.250;18.848;2023-08-17T10:30:01;30.30;83.30
37356;DHT22;48747;50.250;18.848;2023-08-17T10:32:06;30.40;83.40
37356;DHT22;48747;50.250;18.848;2023-08-17T10:34:09;30.40;81.70
37356;DHT22;48747;50.250;18.848;2023-08-17T10:36:13;30.50;82.00
37356;DHT22;48747;50.250;18.848;2023-08-17T10:38:16;30.50;81.30
37356;DHT22;48747;50.250;18.848;2023-08-17T10:42:34;30.40;80.90
37356;DHT22;48747;50.250;18.848;2023-08-17T10:44:39;30.40;81.50
37356;DHT22;48747;50.250;18.848;2023-08-17T10:46:44;30.40;80.50
37356;DHT22;48747;50.250;18.848;2023-08-17T10:48:49;30.40;78.30
37356;DHT22;48747;50.250;18.848;2023-08-17T10:51:04;30.40;80.20
37356;DHT22;48747;50.250;18.848;2023-08-17T10:53:12;30.30;78.50
37356;DHT22;48747;50.250;18.848;2023-08-17T10:55:17;30.40;77.80
37356;DHT22;48747;50.250;18.848;2023-08-17T10:57:28;30.40;77.10
37356;DHT22;48747;50.250;18.848;2023-08-17T10:59:33;30.50;76.70
37356;DHT22;48747;50.250;18.848;2023-08-17T11:01:40;30.60;78.60
37356;DHT22;48747;50.250;18.848;2023-08-17T11:03:42;30.70;75.50
37356;DHT22;48747;50.250;18.848;2023-08-17T11:05:48;30.60;73.90
37356;DHT22;48747;50.250;18.848;2023-08-17T11:07:55;30.60;72.00
37356;DHT22;48747;50.250;18.848;2023-08-17T11:09:59;30.40;69.10
37356;DHT22;48747;50.250;18.848;2023-08-17T11:12:04;30.20;70.90
37356;DHT22;48747;50.250;18.848;2023-08-17T11:14:07;30.30;70.90
37356;DHT22;48747;50.250;18.848;2023-08-17T11:16:13;30.40;69.30
37356;DHT22;48747;50.250;18.848;2023-08-17T11:18:18;30.50;69.10
37356;DHT22;48747;50.250;18.848;2023-08-17T11:20:22;30.50;69.00
37356;DHT22;48747;50.250;18.848;2023-08-17T11:22:28;30.50;69.50
37356;DHT22;48747;50.250;18.848;2023-08-17T11:24:31;30.60;71.10
37356;DHT22;48747;50.250;18.848;2023-08-17T11:26:36;30.60;70.60
37356;DHT22;48747;50.250;18.848;2023-08-17T11:28:39;30.70;71.80
37356;DHT22;48747;50.250;18.848;2023-08-17T11:30:43;30.60;70.00
37356;DHT22;48747;50.250;18.848;2023-08-17T11:32:46;30.60;69.90
37356;DHT22;48747;50.250;18.848;2023-08-17T11:34:50;30.50;66.70
37356;DHT22;48747;50.250;18.848;2023-08-17T11:36:53;30.40;66.60
37356;DHT22;48747;50.250;18.848;2023-08-17T11:38:58;30.20;66.70
37356;DHT22;48747;50.250;18.848;2023-08-17T11:41:06;29.90;67.70
37356;DHT22;48747;50.250;18.848;2023-08-17T11:43:14;29.70;69.70
37356;DHT22;48747;50.250;18.848;2023-08-17T11:45:14;29.30;75.40
37356;DHT22;48747;50.250;18.848;2023-08-17T11:47:17;28.30;91.20
37356;DHT22;48747;50.250;18.848;2023-08-17T11:51:59;25.80;99.90
37356;DHT22;48747;50.250;18.848;2023-08-17T11:54:03;23.80;99.90
37356;DHT22;48747;50.250;18.848;2023-08-17T11:56:28;22.40;99.90
37356;DHT22;48747;50.250;18.848;2023-08-17T11:58:58;21.90;99.90
37356;DHT22;48747;50.250;18.848;2023-08-17T12:00:53;21.80;99.90
37356;DHT22;48747;50.250;18.848;2023-08-17T12:03:02;21.70;99.90
37356;DHT22;48747;50.250;18.848;2023-08-17T12:08:08;21.70;99.90
37356;DHT22;48747;50.250;18.848;2023-08-17T12:09:59;21.70;99.90
37356;DHT22;48747;50.250;18.848;2023-08-17T12:12:02;21.80;99.90
37356;DHT22;48747;50.250;18.848;2023-08-17T12:14:11;21.90;99.90
37356;DHT22;48747;50.250;18.848;2023-08-17T12:17:10;21.90;99.90
37356;DHT22;48747;50.250;18.848;2023-08-17T12:19:15;21.80;99.90
37356;DHT22;48747;50.250;18.848;2023-08-17T12:24:17;22.10;99.90
37356;DHT22;48747;50.250;18.848;2023-08-17T12:29:19;22.30;99.90
37356;DHT22;48747;50.250;18.848;2023-08-17T12:31:23;22.50;99.90
37356;DHT22;48747;50.250;18.848;2023-08-17T12:33:26;22.60;99.90
37356;DHT22;48747;50.250;18.848;2023-08-17T12:35:31;22.70;99.90
37356;DHT22;48747;50.250;18.848;2023-08-17T12:37:36;22.70;99.90
37356;DHT22;48747;50.250;18.848;2023-08-17T12:39:39;22.70;99.90
37356;DHT22;48747;50.250;18.848;2023-08-17T12:41:42;22.80;99.90
37356;DHT22;48747;50.250;18.848;2023-08-17T12:43:47;22.80;99.90
37356;DHT22;48747;50.250;18.848;2023-08-17T12:45:52;22.90;99.90
37356;DHT22;48747;50.250;18.848;2023-08-17T12:47:55;23.00;99.90
37356;DHT22;48747;50.250;18.848;2023-08-17T12:50:00;23.10;99.90
37356;DHT22;48747;50.250;18.848;2023-08-17T12:52:10;23.10;99.90
37356;DHT22;48747;50.250;18.848;2023-08-17T12:54:11;23.20;99.90
37356;DHT22;48747;50.250;18.848;2023-08-17T12:56:14;23.30;99.90
37356;DHT22;48747;50.250;18.848;2023-08-17T12:58:17;23.30;99.90
37356;DHT22;48747;50.250;18.848;2023-08-17T13:00:20;23.40;99.90
37356;DHT22;48747;50.250;18.848;2023-08-17T13:02:31;23.40;99.90
37356;DHT22;48747;50.250;18.848;2023-08-17T13:04:31;23.40;99.90
37356;DHT22;48747;50.250;18.848;2023-08-17T13:06:37;23.40;99.90
37356;DHT22;48747;50.250;18.848;2023-08-17T13:08:42;23.50;99.90
37356;DHT22;48747;50.250;18.848;2023-08-17T13:10:48;23.60;99.90
37356;DHT22;48747;50.250;18.848;2023-08-17T13:12:51;23.70;99.90
37356;DHT22;48747;50.250;18.848;2023-08-17T13:14:59;23.70;99.90